Time;durP1;ratioP1;P1;durP2;ratioP2;P2;SDS_P1;SDS_P2;PMS_P1;PMS_P2;Temp;Humidity;BMP_temperature;BMP_pressure;BME280_temperature;BME280_humidity;BME280_pressure;Samples;Min_cycle;Max_cycle;Signal;HPM_P1;HPM_P2
2023/01/04 00:00:15;;;;;;;10.53;3.70;;;10.20;99.90;;;;;;4956881;28;37948;-74
2023/01/04 00:02:41;;;;;;;8.87;3.63;;;10.10;99.90;;;;;;4952077;28;37825;-74
2023/01/04 00:05:07;;;;;;;8.20;3.60;;;10.10;99.90;;;;;;4937960;28;38489;-74
2023/01/04 00:07:33;;;;;;;7.47;3.37;;;10.10;99.90;;;;;;4936794;28;37758;-75
2023/01/04 00:09:59;;;;;;;7.90;3.53;;;10.10;99.90;;;;;;4935249;28;40207;-74
2023/01/04 00:12:25;;;;;;;6.10;3.50;;;10.10;99.90;;;;;;4949526;28;38862;-74
2023/01/04 00:14:51;;;;;;;8.00;3.63;;;10.10;99.90;;;;;;4931097;28;39091;-74
2023/01/04 00:17:17;;;;;;;9.33;3.50;;;10.10;99.90;;;;;;4941170;28;36838;-74
2023/01/04 00:19:43;;;;;;;10.57;4.13;;;10.10;99.90;;;;;;4948242;28;37841;-74
2023/01/04 00:22:10;;;;;;;11.03;4.13;;;10.10;99.90;;;;;;4928197;28;38854;-74
2023/01/04 00:24:36;;;;;;;5.83;3.40;;;10.10;99.90;;;;;;4911861;28;37339;-74
2023/01/04 00:27:02;;;;;;;6.27;3.97;;;10.10;99.90;;;;;;4927560;28;37079;-74
2023/01/04 00:29:28;;;;;;;8.30;4.07;;;10.10;99.90;;;;;;4928987;28;38462;-74
2023/01/04 00:31:54;;;;;;;7.37;3.93;;;10.20;99.90;;;;;;4930642;28;39302;-74
2023/01/04 00:34:20;;;;;;;9.70;3.83;;;10.20;99.90;;;;;;4909759;28;37246;-75
2023/01/04 00:36:47;;;;;;;11.43;4.10;;;10.20;99.90;;;;;;4942746;28;36298;-75
2023/01/04 00:39:14;;;;;;;9.17;3.67;;;10.20;99.90;;;;;;4931677;28;38430;-74
2023/01/04 00:41:48;;;;;;;7.97;3.87;;;10.20;99.90;;;;;;4929353;28;39764;-74
2023/01/04 00:44:15;;;;;;;8.67;4.20;;;10.30;99.90;;;;;;4906687;28;37172;-74
2023/01/04 00:46:42;;;;;;;10.33;4.50;;;10.30;99.90;;;;;;4929713;28;37151;-74
2023/01/04 00:49:10;;;;;;;10.77;4.63;;;10.30;99.90;;;;;;4941410;28;37713;-74
2023/01/04 00:51:38;;;;;;;7.43;5.10;;;10.40;99.90;;;;;;4924101;28;38634;-74
2023/01/04 00:54:07;;;;;;;9.87;4.90;;;10.40;99.90;;;;;;4913151;29;37587;-75
2023/01/04 00:56:34;;;;;;;13.13;5.07;;;10.40;99.90;;;;;;4930100;28;37296;-75
2023/01/04 00:59:01;;;;;;;11.07;5.50;;;10.40;99.90;;;;;;4929894;28;38238;-75
2023/01/04 01:01:29;;;;;;;13.17;6.00;;;10.40;99.90;;;;;;4912043;28;47845;-74
2023/01/04 01:03:58;;;;;;;12.27;5.57;;;10.40;99.90;;;;;;4931839;28;39007;-74
2023/01/04 01:06:25;;;;;;;14.63;5.70;;;10.50;99.90;;;;;;4932288;28;37898;-74
2023/01/04 01:08:51;;;;;;;15.40;6.33;;;10.50;99.90;;;;;;4912742;28;39161;-75
2023/01/04 01:11:18;;;;;;;10.33;6.63;;;10.50;99.90;;;;;;4928699;28;38918;-74
2023/01/04 01:13:45;;;;;;;10.50;6.40;;;10.50;99.90;;;;;;4910411;28;37975;-75
2023/01/04 01:16:14;;;;;;;11.20;6.00;;;10.60;99.90;;;;;;4939671;28;36067;-74
2023/01/04 01:18:43;;;;;;;9.00;5.47;;;10.60;99.90;;;;;;4930587;28;39167;-74
2023/01/04 01:21:20;;;;;;;11.50;6.13;;;10.70;99.90;;;;;;4927892;28;38845;-75
2023/01/04 01:23:47;;;;;;;9.83;5.37;;;10.70;99.90;;;;;;4927952;28;39469;-75
2023/01/04 01:26:17;;;;;;;9.43;5.53;;;10.70;99.90;;;;;;4930124;28;38083;-74
2023/01/04 01:28:44;;;;;;;10.67;5.47;;;10.80;99.90;;;;;;4916861;28;38587;-75
2023/01/04 01:31:15;;;;;;;9.70;5.17;;;10.80;99.90;;;;;;4931562;28;38924;-74
2023/01/04 01:33:43;;;;;;;9.05;4.97;;;10.80;99.90;;;;;;4915307;28;37069;-73
2023/01/04 01:36:11;;;;;;;10.97;5.73;;;10.80;99.90;;;;;;4932995;28;37257;-75
2023/01/04 01:38:37;;;;;;;8.57;4.70;;;10.80;99.90;;;;;;4947271;28;37995;-75
2023/01/04 01:41:05;;;;;;;9.53;4.77;;;10.90;99.90;;;;;;4913868;28;37716;-75
2023/01/04 01:43:48;;;;;;;7.97;4.33;;;10.90;99.90;;;;;;4910713;29;37427;-74
2023/01/04 01:46:18;;;;;;;4.87;3.57;;;11.00;99.90;;;;;;4944388;28;35925;-75
2023/01/04 01:48:44;;;;;;;9.67;4.03;;;11.00;99.90;;;;;;4928651;28;37567;-75
2023/01/04 01:51:12;;;;;;;10.20;3.80;;;11.00;99.90;;;;;;4924200;28;39014;-75
2023/01/04 01:53:42;;;;;;;7.60;3.33;;;11.00;99.90;;;;;;4922806;28;37940;-75
2023/01/04 01:56:09;;;;;;;11.53;3.80;;;11.00;99.90;;;;;;4921078;28;37311;-76
2023/01/04 01:58:39;;;;;;;7.03;3.37;;;11.00;99.90;;;;;;4930252;28;39056;-75
2023/01/04 02:03:42;;;;;;;8.77;2.97;;;11.10;99.90;;;;;;4967552;23;20051;-81
2023/01/04 02:06:19;;;;;;;5.80;3.10;;;11.10;99.90;;;;;;4939064;28;36195;-81
2023/01/04 02:08:47;;;;;;;4.13;3.10;;;11.10;99.90;;;;;;4938900;28;38556;-82
2023/01/04 02:11:13;;;;;;;12.17;3.40;;;11.10;99.90;;;;;;4954846;28;39171;-82
2023/01/04 02:16:55;;;;;;;4.20;2.50;;;11.20;99.90;;;;;;4950146;28;37642;-81
2023/01/04 02:19:40;;;;;;;7.47;3.30;;;11.20;99.90;;;;;;4883481;28;39567;-82
2023/01/04 02:22:41;;;;;;;7.17;3.10;;;11.20;99.90;;;;;;4949995;28;38531;-82
2023/01/04 02:25:45;;;;;;;4.67;2.63;;;11.20;99.90;;;;;;4934647;28;37451;-81
2023/01/04 02:28:34;;;;;;;5.10;3.13;;;11.20;99.90;;;;;;4945331;28;37370;-81
2023/01/04 02:31:18;;;;;;;6.57;3.60;;;11.30;99.90;;;;;;4935210;28;38669;-83
2023/01/04 02:33:53;;;;;;;5.83;3.67;;;11.30;99.90;;;;;;4957825;28;39735;-82
2023/01/04 02:36:43;;;;;;;5.07;3.63;;;11.30;99.90;;;;;;4938487;28;37655;-82
2023/01/04 02:39:30;;;;;;;6.83;3.33;;;11.30;99.90;;;;;;4961561;28;38325;-81
2023/01/04 02:45:39;;;;;;;5.20;3.70;;;11.30;99.90;;;;;;4959007;28;49479;-82
2023/01/04 02:50:58;;;;;;;9.87;4.17;;;11.30;99.90;;;;;;4961918;28;38040;-82
2023/01/04 02:53:29;;;;;;;;;;;11.30;99.90;;;;;;4946283;28;38591;-82
2023/01/04 02:56:36;;;;;;;6.80;3.50;;;11.30;99.90;;;;;;4956274;28;38174;-82
2023/01/04 02:59:37;;;;;;;11.13;4.13;;;11.30;99.90;;;;;;4945872;28;47052;-82
2023/01/04 03:08:18;;;;;;;4.73;4.03;;;11.30;99.90;;;;;;4942614;28;49127;-82
2023/01/04 03:14:26;;;;;;;6.70;4.57;;;11.30;99.90;;;;;;4880584;29;20074;-81
2023/01/04 03:16:54;;;;;;;7.27;5.00;;;11.30;99.90;;;;;;4950322;28;38935;-82
2023/01/04 03:35:21;;;;;;;5.40;4.00;;;11.40;99.90;;;;;;4959222;28;38809;-81
2023/01/04 03:36:27;;;;;;;6.47;4.03;;;11.40;99.90;;;;;;4955973;28;37786;-82
2023/01/04 03:48:30;;;;;;;7.77;4.60;;;11.50;99.90;;;;;;4956641;28;49296;-82
2023/01/04 03:51:09;;;;;;;4.77;4.10;;;11.50;99.90;;;;;;4940595;28;47675;-82
2023/01/04 03:53:45;;;;;;;4.97;4.47;;;11.50;99.90;;;;;;4959379;28;47432;-82
2023/01/04 03:56:12;;;;;;;5.43;4.80;;;11.60;99.90;;;;;;4960627;28;37470;-82
2023/01/04 03:58:38;;;;;;;7.83;4.70;;;11.50;99.90;;;;;;4959032;28;37742;-82
2023/01/04 04:01:06;;;;;;;5.30;4.80;;;11.50;99.90;;;;;;4955768;28;38991;-82
2023/01/04 04:09:02;;;;;;;6.57;4.50;;;11.60;99.90;;;;;;4951973;28;38186;-80
2023/01/04 04:11:30;;;;;;;8.83;4.27;;;11.60;99.90;;;;;;4961178;28;39426;-81
2023/01/04 04:13:58;;;;;;;5.53;4.38;;;11.70;99.90;;;;;;4959348;28;37424;-83
2023/01/04 04:16:24;;;;;;;5.97;4.30;;;11.70;99.90;;;;;;4957858;28;38392;-83
2023/01/04 04:18:50;;;;;;;6.20;5.07;;;11.70;99.90;;;;;;4943052;28;35857;-83
2023/01/04 04:21:16;;;;;;;7.53;4.43;;;11.80;99.90;;;;;;4962731;28;38641;-82
2023/01/04 04:23:43;;;;;;;4.47;3.83;;;11.70;99.90;;;;;;4945589;28;37586;-81
2023/01/04 04:26:10;;;;;;;7.10;5.10;;;11.70;99.90;;;;;;4943170;28;37290;-81
2023/01/04 04:28:36;;;;;;;8.43;5.03;;;11.80;99.90;;;;;;4944691;28;37159;-82
2023/01/04 04:31:02;;;;;;;10.77;4.80;;;11.70;99.90;;;;;;4943350;28;39197;-81
2023/01/04 04:33:28;;;;;;;6.43;4.57;;;11.80;99.90;;;;;;4959914;28;38910;-82
2023/01/04 04:35:54;;;;;;;6.53;4.70;;;11.70;99.90;;;;;;4943828;28;37104;-82
2023/01/04 04:38:21;;;;;;;9.40;4.60;;;11.80;99.90;;;;;;4956945;28;36231;-82
2023/01/04 04:43:33;;;;;;;4.93;4.23;;;11.80;99.90;;;;;;4961365;28;49093;-82
2023/01/04 04:46:00;;;;;;;7.15;4.30;;;11.80;99.90;;;;;;4943782;28;37644;-82
2023/01/04 04:48:26;;;;;;;9.57;5.67;;;11.80;99.90;;;;;;4959119;28;36911;-82
2023/01/04 04:50:52;;;;;;;7.83;4.70;;;11.70;99.90;;;;;;4962387;28;39072;-82
2023/01/04 04:53:18;;;;;;;5.75;4.72;;;11.80;99.90;;;;;;4965200;28;39133;-82
2023/01/04 04:55:44;;;;;;;4.57;4.13;;;11.80;99.90;;;;;;4944480;28;38400;-82
2023/01/04 04:58:10;;;;;;;4.97;4.47;;;11.80;99.90;;;;;;4946088;28;36647;-81
2023/01/04 05:00:39;;;;;;;6.28;4.90;;;11.80;99.90;;;;;;4959618;28;38325;-81
2023/01/04 05:03:05;;;;;;;5.10;4.63;;;11.80;99.90;;;;;;4956669;28;39043;-82
2023/01/04 05:05:31;;;;;;;6.78;5.47;;;11.80;99.90;;;;;;4966502;28;39282;-83
2023/01/04 05:07:57;;;;;;;5.50;5.00;;;11.80;99.90;;;;;;4957652;28;38341;-83
2023/01/04 05:10:23;;;;;;;6.90;5.32;;;11.90;99.90;;;;;;4967541;28;39035;-83
2023/01/04 05:12:58;;;;;;;5.68;4.97;;;11.90;99.90;;;;;;4967570;28;38713;-83
2023/01/04 05:15:36;;;;;;;4.43;4.10;;;11.90;99.90;;;;;;4967086;28;37652;-83
2023/01/04 05:18:04;;;;;;;8.63;4.78;;;11.90;99.90;;;;;;4962158;28;37270;-82
2023/01/04 05:20:30;;;;;;;6.80;4.25;;;12.00;99.90;;;;;;4954548;28;37775;-82
2023/01/04 05:22:56;;;;;;;4.93;3.92;;;12.00;99.90;;;;;;4945814;28;39181;-83
2023/01/04 05:25:28;;;;;;;6.55;4.10;;;12.00;99.90;;;;;;4962320;28;38922;-82
2023/01/04 05:27:55;;;;;;;5.18;3.92;;;12.00;99.90;;;;;;4945263;28;37441;-81
2023/01/04 05:33:13;;;;;;;4.20;3.80;;;12.10;99.90;;;;;;4954983;28;40053;-82
2023/01/04 05:35:39;;;;;;;4.28;3.42;;;12.10;99.90;;;;;;4957405;28;39132;-82
2023/01/04 05:38:05;;;;;;;6.13;4.05;;;12.10;99.90;;;;;;4960042;28;36533;-83
2023/01/04 05:40:31;;;;;;;5.47;3.45;;;12.10;99.90;;;;;;4964771;28;39422;-83
2023/01/04 05:42:57;;;;;;;4.28;3.90;;;12.10;99.90;;;;;;4949377;28;37584;-83
2023/01/04 05:45:24;;;;;;;7.93;4.35;;;12.00;99.90;;;;;;4947162;28;39621;-83
2023/01/04 05:47:52;;;;;;;5.72;4.35;;;12.00;99.90;;;;;;4962993;28;37689;-80
2023/01/04 05:50:20;;;;;;;5.50;4.65;;;12.00;99.90;;;;;;4943253;28;38324;-81
2023/01/04 05:52:46;;;;;;;4.37;3.97;;;12.00;99.90;;;;;;4962231;28;38046;-81
2023/01/04 05:55:13;;;;;;;7.30;3.87;;;12.00;99.90;;;;;;4942116;28;37625;-81
2023/01/04 05:57:39;;;;;;;7.85;4.47;;;12.00;99.90;;;;;;4964054;28;37005;-81
2023/01/04 06:00:08;;;;;;;4.57;4.17;;;12.00;99.90;;;;;;4959530;28;41148;-81
2023/01/04 06:02:35;;;;;;;5.93;5.43;;;12.00;99.90;;;;;;4961451;28;39448;-82
2023/01/04 06:05:01;;;;;;;5.40;4.80;;;12.10;99.90;;;;;;4961993;28;37703;-83
2023/01/04 06:07:28;;;;;;;5.97;5.20;;;12.10;99.90;;;;;;4945176;28;35710;-81
2023/01/04 06:09:55;;;;;;;7.53;4.63;;;12.10;99.90;;;;;;4965295;28;40350;-81
2023/01/04 06:12:21;;;;;;;10.82;4.43;;;12.20;99.90;;;;;;4946701;28;37521;-81
2023/01/04 06:14:47;;;;;;;7.23;4.10;;;12.20;99.90;;;;;;4939753;28;37447;-82
2023/01/04 06:17:13;;;;;;;5.85;3.60;;;12.20;99.90;;;;;;4960178;28;37695;-81
2023/01/04 06:19:39;;;;;;;9.27;3.70;;;12.20;99.90;;;;;;4955746;28;37598;-82
2023/01/04 06:22:06;;;;;;;7.65;3.97;;;12.20;99.90;;;;;;4968163;28;38296;-81
2023/01/04 06:24:44;;;;;;;5.53;3.47;;;12.30;99.90;;;;;;4978790;28;38888;-82
2023/01/04 06:27:11;;;;;;;7.40;4.27;;;12.30;99.90;;;;;;4948910;28;36331;-81
2023/01/04 06:29:37;;;;;;;5.90;3.05;;;12.30;99.90;;;;;;4952912;28;38669;-82
2023/01/04 06:32:03;;;;;;;9.30;3.40;;;12.30;99.90;;;;;;4968066;28;39462;-82
2023/01/04 06:34:30;;;;;;;9.20;3.40;;;12.30;99.90;;;;;;4969412;28;38336;-84
2023/01/04 06:37:02;;;;;;;6.20;3.03;;;12.30;99.90;;;;;;4967173;28;38655;-82
2023/01/04 06:39:29;;;;;;;6.57;2.85;;;12.30;99.90;;;;;;4971729;28;47254;-82
2023/01/04 06:41:55;;;;;;;11.57;3.40;;;12.30;99.90;;;;;;4970216;28;39372;-82
2023/01/04 06:44:21;;;;;;;11.73;3.10;;;12.40;99.90;;;;;;4968569;28;37558;-82
2023/01/04 06:46:47;;;;;;;7.85;2.92;;;12.30;99.90;;;;;;4972500;28;39592;-82
2023/01/04 06:49:25;;;;;;;14.15;3.78;;;12.40;99.90;;;;;;4953752;28;37938;-82
2023/01/04 06:51:58;;;;;;;9.80;3.70;;;12.30;99.90;;;;;;4970565;28;39843;-83
2023/01/04 06:54:24;;;;;;;9.00;3.30;;;12.40;99.90;;;;;;4947504;28;37357;-81
2023/01/04 06:56:50;;;;;;;9.65;3.33;;;12.40;99.90;;;;;;4952790;28;36911;-83
2023/01/04 06:59:16;;;;;;;13.75;3.80;;;12.40;99.90;;;;;;4952574;28;40227;-83
2023/01/04 07:01:42;;;;;;;9.80;3.60;;;12.40;99.90;;;;;;4970250;28;37410;-82
2023/01/04 07:04:09;;;;;;;13.00;3.58;;;12.40;99.90;;;;;;4949476;28;38515;-83
2023/01/04 07:06:35;;;;;;;10.27;3.23;;;12.40;99.90;;;;;;4966886;28;37184;-82
2023/01/04 07:09:01;;;;;;;13.77;3.80;;;12.40;99.90;;;;;;4947073;28;37181;-78
2023/01/04 07:11:27;;;;;;;13.90;4.20;;;12.40;99.90;;;;;;4965290;28;38726;-82
2023/01/04 07:13:53;;;;;;;22.08;4.93;;;12.40;99.90;;;;;;4962575;28;35794;-83
2023/01/04 07:16:20;;;;;;;10.63;4.18;;;12.30;99.90;;;;;;4966519;28;38385;-82
2023/01/04 07:18:46;;;;;;;11.67;3.80;;;12.40;99.90;;;;;;4968721;28;39342;-82
2023/01/04 07:21:12;;;;;;;10.75;3.35;;;12.40;99.90;;;;;;4950471;28;39113;-82
2023/01/04 07:23:38;;;;;;;8.95;3.55;;;12.40;99.90;;;;;;4970187;28;38970;-81
2023/01/04 07:26:20;;;;;;;7.55;3.50;;;12.40;99.90;;;;;;4971693;28;37482;-81
2023/01/04 07:29:13;;;;;;;7.22;3.58;;;12.40;99.90;;;;;;4975986;28;39325;-82
2023/01/04 07:31:39;;;;;;;8.55;3.20;;;12.30;99.90;;;;;;4956983;28;48214;-83
2023/01/04 07:34:06;;;;;;;17.02;3.50;;;12.30;99.90;;;;;;4960570;28;38146;-82
2023/01/04 07:36:32;;;;;;;7.82;3.55;;;12.30;99.90;;;;;;4978987;28;38226;-83
2023/01/04 07:39:01;;;;;;;10.20;4.27;;;12.40;99.90;;;;;;4975243;28;39673;-82
2023/01/04 07:41:29;;;;;;;12.07;4.30;;;12.40;99.90;;;;;;4973036;28;49350;-83
2023/01/04 07:43:57;;;;;;;8.07;4.57;;;12.30;99.90;;;;;;4959146;28;37323;-82
2023/01/04 07:46:23;;;;;;;12.65;4.93;;;12.40;99.90;;;;;;4968706;28;35933;-82
2023/01/04 07:48:49;;;;;;;11.93;5.57;;;12.40;99.90;;;;;;4951652;28;37450;-81
2023/01/04 07:51:15;;;;;;;8.73;5.57;;;12.40;99.90;;;;;;4942314;28;37098;-82
2023/01/04 07:53:41;;;;;;;9.13;6.10;;;12.40;99.90;;;;;;4954734;28;38332;-82
2023/01/04 07:56:14;;;;;;;12.35;5.68;;;12.40;99.90;;;;;;4970267;28;37805;-82
2023/01/04 07:58:41;;;;;;;14.00;6.18;;;12.40;99.90;;;;;;4969821;28;37469;-82
2023/01/04 08:01:07;;;;;;;12.82;5.85;;;12.40;99.90;;;;;;4956684;28;37853;-82
2023/01/04 08:03:35;;;;;;;8.25;5.65;;;12.40;99.90;;;;;;4978363;28;38151;-81
2023/01/04 08:06:11;;;;;;;11.43;6.07;;;12.40;99.90;;;;;;4959621;28;37123;-82
2023/01/04 08:08:43;;;;;;;11.73;6.18;;;12.40;99.90;;;;;;4973855;28;50276;-82
2023/01/04 08:11:13;;;;;;;16.23;6.35;;;12.40;99.90;;;;;;4977333;28;40335;-81
2023/01/04 08:13:40;;;;;;;16.33;5.40;;;12.50;99.90;;;;;;4979421;28;41613;-82
2023/01/04 08:16:16;;;;;;;12.90;5.18;;;12.40;99.90;;;;;;4980265;28;37157;-80
2023/01/04 08:18:44;;;;;;;13.63;6.15;;;12.50;99.90;;;;;;4960455;28;39299;-81
2023/01/04 08:21:11;;;;;;;15.32;4.88;;;12.50;99.90;;;;;;4961024;28;38664;-81
2023/01/04 08:23:37;;;;;;;14.38;4.80;;;12.60;99.90;;;;;;4977827;28;39208;-82
2023/01/04 08:26:09;;;;;;;18.52;6.22;;;12.50;99.90;;;;;;4964795;28;37980;-80
2023/01/04 08:28:35;;;;;;;22.83;6.53;;;12.60;99.90;;;;;;4952257;28;37941;-82
2023/01/04 08:31:34;;;;;;;15.68;5.72;;;12.60;99.90;;;;;;4977721;28;40274;-79
2023/01/04 08:34:04;;;;;;;22.38;4.97;;;12.60;99.90;;;;;;4929222;28;39841;-81
2023/01/04 08:36:33;;;;;;;20.08;5.25;;;12.70;99.90;;;;;;4947438;28;47255;-81
2023/01/04 08:39:05;;;;;;;20.70;5.57;;;12.70;99.90;;;;;;4957464;28;39438;-80
2023/01/04 08:41:49;;;;;;;21.17;5.53;;;12.70;99.90;;;;;;4963558;28;48047;-80
2023/01/04 08:44:19;;;;;;;13.65;4.40;;;12.70;99.90;;;;;;4960179;28;38050;-81
2023/01/04 08:46:46;;;;;;;23.98;5.07;;;12.70;99.90;;;;;;4941057;28;35790;-80
2023/01/04 08:49:12;;;;;;;21.63;4.90;;;12.70;99.90;;;;;;4953685;28;39256;-80
2023/01/04 08:51:39;;;;;;;24.35;4.47;;;12.80;99.90;;;;;;4940436;28;37092;-80
2023/01/04 08:54:05;;;;;;;18.65;3.75;;;12.70;99.90;;;;;;4958874;28;39892;-81
2023/01/04 08:56:31;;;;;;;18.83;3.15;;;12.70;99.90;;;;;;4966371;28;37996;-81
2023/01/04 08:58:57;;;;;;;20.50;3.65;;;12.70;99.90;;;;;;4957337;28;37875;-82
2023/01/04 09:01:23;;;;;;;18.35;3.83;;;12.80;99.90;;;;;;4971407;28;40301;-82
2023/01/04 09:03:50;;;;;;;23.02;4.18;;;12.80;99.90;;;;;;4967465;28;38657;-83
2023/01/04 09:06:16;;;;;;;13.45;3.63;;;12.80;99.90;;;;;;4962393;28;37424;-82
2023/01/04 09:08:43;;;;;;;22.42;4.35;;;12.80;99.90;;;;;;4961686;28;39124;-82
2023/01/04 09:11:12;;;;;;;20.40;3.70;;;12.80;99.90;;;;;;4959210;28;38627;-82
2023/01/04 09:13:40;;;;;;;14.63;3.53;;;12.80;99.90;;;;;;4962588;28;37098;-83
2023/01/04 09:16:09;;;;;;;17.08;3.53;;;12.80;99.90;;;;;;4923764;28;36653;-84
2023/01/04 09:18:38;;;;;;;16.13;4.68;;;12.90;99.90;;;;;;4936773;28;38663;-82
2023/01/04 09:21:10;;;;;;;26.30;4.05;;;12.90;99.90;;;;;;4954254;28;37907;-81
2023/01/04 09:23:40;;;;;;;18.30;3.92;;;12.90;99.90;;;;;;4951972;28;37928;-81
2023/01/04 09:26:08;;;;;;;16.60;3.70;;;12.90;99.90;;;;;;4973664;28;36980;-81
2023/01/04 09:28:34;;;;;;;15.52;3.88;;;12.90;99.90;;;;;;4954365;28;38248;-80
2023/01/04 09:31:05;;;;;;;18.75;3.60;;;12.90;99.90;;;;;;4951861;28;37596;-81
2023/01/04 09:33:31;;;;;;;12.68;3.25;;;12.90;99.90;;;;;;4970189;28;48435;-82
2023/01/04 09:36:05;;;;;;;21.90;4.22;;;12.90;99.90;;;;;;4954375;28;37281;-82
2023/01/04 09:38:33;;;;;;;20.40;3.60;;;12.90;99.90;;;;;;4964551;28;46687;-81
2023/01/04 09:41:20;;;;;;;15.82;3.90;;;12.90;99.90;;;;;;4962479;28;39192;-82
2023/01/04 09:43:49;;;;;;;18.25;3.63;;;12.90;99.90;;;;;;4959600;28;48585;-81
2023/01/04 09:46:29;;;;;;;17.45;3.42;;;12.90;99.90;;;;;;4961417;28;37230;-82
2023/01/04 09:49:15;;;;;;;25.52;5.10;;;12.90;99.90;;;;;;4972600;28;39876;-82
2023/01/04 09:51:49;;;;;;;20.55;3.30;;;13.00;99.90;;;;;;4965272;28;47725;-82
2023/01/04 09:54:19;;;;;;;18.58;3.38;;;13.00;99.90;;;;;;4965318;28;37760;-82
2023/01/04 09:56:52;;;;;;;21.60;3.50;;;13.00;99.90;;;;;;4949841;28;36415;-82
2023/01/04 09:59:26;;;;;;;19.33;3.53;;;13.00;99.90;;;;;;4966066;28;38350;-80
2023/01/04 10:02:09;;;;;;;17.80;3.05;;;13.10;99.90;;;;;;4963963;28;39320;-80
2023/01/04 10:04:47;;;;;;;19.65;3.95;;;13.10;99.90;;;;;;4969155;28;46919;-79
2023/01/04 10:07:27;;;;;;;15.35;2.97;;;13.10;99.90;;;;;;4931677;28;36402;-79
2023/01/04 10:09:54;;;;;;;15.38;2.40;;;13.20;99.90;;;;;;4953113;28;37745;-81
2023/01/04 10:12:56;;;;;;;17.67;2.75;;;13.20;99.90;;;;;;4947209;28;39844;-80
2023/01/04 10:15:29;;;;;;;14.18;2.53;;;13.30;99.90;;;;;;4957772;28;39125;-81
2023/01/04 10:18:08;;;;;;;22.90;3.00;;;13.30;99.90;;;;;;4958103;28;36099;-81
2023/01/04 10:20:53;;;;;;;12.00;2.50;;;13.40;99.90;;;;;;4953317;28;49196;-81
2023/01/04 10:23:34;;;;;;;14.20;3.20;;;13.40;99.90;;;;;;4954362;28;38686;-80
2023/01/04 10:26:11;;;;;;;11.73;2.28;;;13.40;99.90;;;;;;4953434;28;37397;-80
2023/01/04 10:28:55;;;;;;;14.55;3.03;;;13.40;99.90;;;;;;4953163;28;48096;-80
2023/01/04 10:31:21;;;;;;;7.63;2.20;;;13.40;99.90;;;;;;4950610;28;39317;-81
2023/01/04 10:33:53;;;;;;;8.10;2.33;;;13.40;99.90;;;;;;4949364;28;39591;-80
2023/01/04 10:36:22;;;;;;;9.20;2.35;;;13.50;99.90;;;;;;4931166;28;37513;-79
2023/01/04 10:39:13;;;;;;;7.05;1.88;;;13.50;99.90;;;;;;4949385;28;36967;-80
2023/01/04 10:41:52;;;;;;;6.90;1.77;;;13.50;99.90;;;;;;4926484;28;46964;-79
2023/01/04 10:44:32;;;;;;;11.43;2.03;;;13.60;99.90;;;;;;4943010;28;39886;-80
2023/01/04 10:47:16;;;;;;;9.20;1.73;;;13.60;99.90;;;;;;4944558;28;38504;-81
2023/01/04 10:49:49;;;;;;;8.50;2.35;;;13.60;99.90;;;;;;4936876;28;47122;-81
2023/01/04 10:52:37;;;;;;;6.60;2.53;;;13.60;99.90;;;;;;4954429;28;38488;-81
2023/01/04 10:55:20;;;;;;;5.88;1.83;;;13.70;99.90;;;;;;4929125;28;38736;-82
2023/01/04 10:58:09;;;;;;;8.55;1.77;;;13.70;99.90;;;;;;4952966;28;47271;-81
2023/01/04 11:00:50;;;;;;;9.93;2.15;;;13.70;99.90;;;;;;4931859;28;46868;-79
2023/01/04 11:03:37;;;;;;;7.53;1.90;;;13.70;99.90;;;;;;4934789;28;39188;-81
2023/01/04 11:06:22;;;;;;;6.18;1.60;;;13.70;99.90;;;;;;4955329;28;38626;-80
2023/01/04 11:08:54;;;;;;;5.13;1.50;;;13.70;99.90;;;;;;4947314;28;38276;-80
2023/01/04 11:11:28;;;;;;;7.45;1.67;;;13.70;99.90;;;;;;4939102;28;37408;-80
2023/01/04 11:13:55;;;;;;;9.32;1.67;;;13.80;99.90;;;;;;4938807;28;38796;-80
2023/01/04 11:16:21;;;;;;;9.00;3.22;;;13.80;99.90;;;;;;4947407;28;38965;-79
2023/01/04 11:18:49;;;;;;;9.40;2.47;;;13.80;99.90;;;;;;4930574;28;37340;-80
2023/01/04 11:21:21;;;;;;;8.45;2.38;;;13.80;99.90;;;;;;4945620;28;37041;-79
2023/01/04 11:23:47;;;;;;;9.48;1.40;;;13.90;99.90;;;;;;4930860;28;38950;-79
2023/01/04 11:26:21;;;;;;;8.15;1.88;;;13.90;99.90;;;;;;4948354;28;37788;-80
2023/01/04 11:28:57;;;;;;;9.93;2.40;;;13.90;99.90;;;;;;4931440;28;37689;-80
2023/01/04 11:31:48;;;;;;;11.70;1.98;;;13.90;99.90;;;;;;4924391;28;36722;-80
2023/01/04 11:34:14;;;;;;;12.20;2.78;;;13.90;99.90;;;;;;4941837;28;37598;-81
2023/01/04 11:36:41;;;;;;;13.40;2.72;;;13.90;99.90;;;;;;4928192;28;38700;-80
2023/01/04 11:39:21;;;;;;;10.88;1.85;;;13.90;99.90;;;;;;4946239;28;37385;-79
2023/01/04 11:41:58;;;;;;;14.60;2.80;;;13.90;99.90;;;;;;4948717;28;36973;-78
2023/01/04 11:44:25;;;;;;;11.98;2.33;;;13.80;99.90;;;;;;4947711;28;35953;-81
2023/01/04 11:47:23;;;;;;;11.48;2.28;;;13.90;99.90;;;;;;4945381;28;38655;-79
2023/01/04 11:49:50;;;;;;;16.05;2.15;;;13.80;99.90;;;;;;4928537;28;47088;-81
2023/01/04 11:52:35;;;;;;;14.02;2.50;;;13.80;99.90;;;;;;4947144;28;38397;-79
2023/01/04 11:55:37;;;;;;;14.15;2.50;;;13.80;99.90;;;;;;4945669;28;38502;-80
2023/01/04 11:58:10;;;;;;;10.25;2.38;;;13.80;99.90;;;;;;4855019;29;47584;-79
2023/01/04 12:00:37;;;;;;;15.95;2.40;;;13.80;99.90;;;;;;4925497;28;37601;-79
2023/01/04 12:03:14;;;;;;;16.38;2.40;;;13.90;99.90;;;;;;4921709;28;36366;-80
2023/01/04 12:05:40;;;;;;;14.23;2.55;;;13.90;99.90;;;;;;4942103;28;38468;-81
2023/01/04 12:08:25;;;;;;;9.60;2.17;;;13.90;99.90;;;;;;4934590;28;37852;-81
2023/01/04 12:10:51;;;;;;;15.63;2.42;;;13.90;99.90;;;;;;4959684;28;37727;-81
2023/01/04 12:13:18;;;;;;;15.63;2.72;;;13.90;99.90;;;;;;4962704;28;37630;-81
2023/01/04 12:16:16;;;;;;;10.38;2.40;;;13.90;99.90;;;;;;4967270;28;37616;-82
2023/01/04 12:18:43;;;;;;;14.93;2.13;;;13.90;99.90;;;;;;4937762;28;46735;-80
2023/01/04 12:21:22;;;;;;;10.85;2.90;;;13.80;99.90;;;;;;4949010;28;39228;-80
2023/01/04 12:23:49;;;;;;;13.52;3.05;;;13.80;99.90;;;;;;4962628;28;36838;-83
2023/01/04 12:26:16;;;;;;;14.10;2.50;;;13.80;99.90;;;;;;4969215;28;39428;-81
2023/01/04 12:28:45;;;;;;;10.80;2.00;;;13.80;99.90;;;;;;4935520;28;38406;-82
2023/01/04 12:31:20;;;;;;;16.10;2.42;;;13.80;99.90;;;;;;4938339;28;37543;-82
2023/01/04 12:34:12;;;;;;;18.65;3.13;;;13.80;99.90;;;;;;4953386;28;36618;-82
2023/01/04 12:36:38;;;;;;;17.52;2.35;;;13.80;99.90;;;;;;4888170;28;47013;-81
2023/01/04 12:39:28;;;;;;;17.48;3.45;;;13.80;99.90;;;;;;4928845;28;38552;-81
2023/01/04 12:42:00;;;;;;;15.15;2.45;;;13.80;99.90;;;;;;4963405;28;38679;-82
2023/01/04 12:44:37;;;;;;;12.82;3.17;;;13.80;99.90;;;;;;4968413;28;35781;-83
2023/01/04 12:50:07;;;;;;;17.92;3.08;;;13.80;99.90;;;;;;4960176;28;39196;-83
2023/01/04 12:52:42;;;;;;;18.85;3.03;;;13.80;99.90;;;;;;4956336;28;46852;-83
2023/01/04 12:55:31;;;;;;;21.13;3.70;;;13.70;99.90;;;;;;4955876;28;37055;-82
2023/01/04 12:58:02;;;;;;;16.00;3.25;;;13.70;99.90;;;;;;4962793;28;38045;-81
2023/01/04 13:00:59;;;;;;;15.05;2.92;;;13.70;99.90;;;;;;4964087;28;46762;-83
2023/01/04 13:03:28;;;;;;;14.63;3.28;;;13.60;99.90;;;;;;4935414;28;37164;-81
2023/01/04 13:06:01;;;;;;;23.20;3.80;;;13.60;99.90;;;;;;4946572;28;35514;-81
2023/01/04 13:08:34;;;;;;;17.08;3.30;;;13.60;99.90;;;;;;4949583;28;46842;-81
2023/01/04 13:11:03;;;;;;;12.20;2.55;;;13.60;99.90;;;;;;4965576;28;39218;-82
2023/01/04 13:13:56;;;;;;;17.17;3.08;;;13.60;99.90;;;;;;4944996;28;47084;-82
2023/01/04 13:16:41;;;;;;;16.10;2.92;;;13.60;99.90;;;;;;4953134;28;35830;-82
2023/01/04 13:19:27;;;;;;;27.20;2.97;;;13.60;99.90;;;;;;4967356;28;39013;-82
2023/01/04 13:21:54;;;;;;;13.35;2.67;;;13.70;99.90;;;;;;4963696;28;39118;-81
2023/01/04 13:24:34;;;;;;;18.15;3.45;;;13.70;99.90;;;;;;4947937;28;39007;-83
2023/01/04 13:27:21;;;;;;;14.90;2.38;;;13.80;99.90;;;;;;4957529;28;36631;-81
2023/01/04 13:29:54;;;;;;;18.73;2.83;;;13.70;99.90;;;;;;4969103;28;48738;-82
2023/01/04 13:32:23;;;;;;;14.40;2.45;;;13.80;99.90;;;;;;4957092;28;38072;-81
2023/01/04 13:34:59;;;;;;;23.52;3.55;;;13.80;99.90;;;;;;4953756;28;37930;-81
2023/01/04 13:37:41;;;;;;;15.10;2.65;;;13.80;99.90;;;;;;4959423;28;37639;-82
2023/01/04 13:40:26;;;;;;;19.67;3.25;;;13.80;99.90;;;;;;4942330;28;37917;-84
2023/01/04 13:43:10;;;;;;;16.55;3.03;;;13.90;99.90;;;;;;4969950;28;38846;-82
2023/01/04 13:45:45;;;;;;;17.63;3.38;;;13.90;99.90;;;;;;4951090;28;47350;-82
2023/01/04 13:48:14;;;;;;;18.77;2.80;;;13.90;99.90;;;;;;4961393;28;35906;-81
2023/01/04 13:51:12;;;;;;;18.42;2.97;;;13.90;99.90;;;;;;4969711;28;38684;-81
2023/01/04 13:53:40;;;;;;;15.90;3.13;;;13.90;99.90;;;;;;4944430;28;47410;-82
2023/01/04 13:56:26;;;;;;;17.00;2.55;;;13.90;99.90;;;;;;4960983;28;38302;-82
2023/01/04 13:58:52;;;;;;;21.98;3.05;;;13.90;99.90;;;;;;4966836;28;37237;-82
2023/01/04 14:01:20;;;;;;;17.85;3.55;;;13.80;99.90;;;;;;4971833;28;40162;-82
2023/01/04 14:03:54;;;;;;;14.13;2.78;;;13.80;99.90;;;;;;4937107;28;39991;-81
2023/01/04 14:06:26;;;;;;;22.15;3.80;;;13.80;99.90;;;;;;4951573;28;37491;-81